Time;durP1;ratioP1;P1;durP2;ratioP2;P2;SDS_P1;SDS_P2;PMS_P1;PMS_P2;Temp;Humidity;BMP_temperature;BMP_pressure;BME280_temperature;BME280_humidity;BME280_pressure;Samples;Min_cycle;Max_cycle;Signal;HPM_P1;HPM_P2
2022/07/05 00:02:18;;;;;;;3.88;1.55;;;15.40;99.90;;;14.45;100.00;101494.78;4974757;28;20574;-75
2022/07/05 00:04:44;;;;;;;3.35;0.85;;;15.30;99.90;;;14.34;100.00;101495.34;4984253;28;20045;-74
2022/07/05 00:07:18;;;;;;;;;;;15.30;99.90;;;14.14;100.00;101498.94;4974632;28;20112;-75
2022/07/05 00:09:52;;;;;;;5.47;1.48;;;15.10;99.90;;;14.04;100.00;101494.19;4982293;28;19920;-75
2022/07/05 00:12:21;;;;;;;3.42;1.20;;;15.00;99.90;;;13.95;100.00;101487.53;4980769;28;20025;-75
2022/07/05 00:14:48;;;;;;;4.72;1.65;;;14.90;99.90;;;13.90;100.00;101485.13;4987416;28;20033;-75
2022/07/05 00:17:14;;;;;;;6.47;1.77;;;14.90;99.90;;;13.85;100.00;101489.78;4965300;28;20150;-74
2022/07/05 00:19:41;;;;;;;5.95;1.83;;;14.80;99.90;;;13.83;100.00;101490.81;4983405;28;20130;-75
2022/07/05 00:22:07;;;;;;;6.88;2.22;;;14.80;99.90;;;13.78;100.00;101488.38;4981889;28;20042;-75
2022/07/05 00:24:33;;;;;;;7.47;1.80;;;14.70;99.90;;;13.76;100.00;101495.53;4982117;28;20505;-74
2022/07/05 00:26:59;;;;;;;8.73;2.28;;;14.70;99.90;;;13.73;100.00;101495.66;4996368;28;20042;-75
2022/07/05 00:29:26;;;;;;;6.55;1.88;;;14.70;99.90;;;13.70;100.00;101490.53;4988026;28;20117;-75
2022/07/05 00:31:52;;;;;;;5.68;1.73;;;14.60;99.90;;;13.68;100.00;101487.94;4982153;28;20034;-75
2022/07/05 00:34:18;;;;;;;3.50;1.70;;;14.60;99.90;;;13.65;100.00;101493.41;4963937;28;20038;-75
2022/07/05 00:36:44;;;;;;;4.05;1.63;;;14.60;99.90;;;13.60;100.00;101490.09;4982586;28;20019;-75
2022/07/05 00:39:10;;;;;;;9.52;2.03;;;14.50;99.90;;;13.56;100.00;101491.16;4972379;28;20030;-75
2022/07/05 00:41:37;;;;;;;4.18;1.70;;;14.50;99.90;;;13.53;100.00;101484.22;4980724;28;20018;-74
2022/07/05 00:44:09;;;;;;;6.28;2.20;;;14.50;99.90;;;13.53;100.00;101488.69;4982080;28;20054;-75
2022/07/05 00:46:36;;;;;;;146.07;2.80;;;14.50;99.90;;;13.49;100.00;101490.59;4982574;28;20038;-75
2022/07/05 00:49:04;;;;;;;9.98;0.98;;;14.40;99.90;;;13.40;100.00;101488.38;4981410;28;20022;-75
2022/07/05 00:51:36;;;;;;;1.30;0.88;;;14.40;99.90;;;13.34;100.00;101484.22;4982973;28;20061;-75
2022/07/05 00:54:05;;;;;;;5.15;1.05;;;14.30;99.90;;;13.30;100.00;101490.63;4962887;28;20081;-75
2022/07/05 00:56:31;;;;;;;5.45;1.65;;;14.30;99.90;;;13.26;100.00;101491.66;4965226;28;20050;-75
2022/07/05 00:58:56;;;;;;;7.95;1.88;;;14.20;99.90;;;13.25;100.00;101491.72;4979878;28;20026;-75
2022/07/05 01:01:23;;;;;;;10.23;2.35;;;14.20;99.90;;;13.23;100.00;101491.78;4990592;28;20021;-75
2022/07/05 01:03:49;;;;;;;10.80;2.90;;;14.20;99.90;;;13.18;100.00;101492.94;4991879;28;20117;-75
2022/07/05 01:06:15;;;;;;;8.02;2.25;;;14.10;99.90;;;13.13;100.00;101486.06;4964578;28;20368;-74
2022/07/05 01:08:44;;;;;;;11.13;1.92;;;14.10;99.90;;;13.09;100.00;101487.13;4975038;28;20060;-75
2022/07/05 01:11:11;;;;;;;6.07;1.60;;;14.00;99.90;;;13.06;100.00;101487.25;4973054;28;20023;-75
2022/07/05 01:13:38;;;;;;;8.40;2.65;;;14.00;99.90;;;13.02;100.00;101484.81;4987605;28;20080;-75
2022/07/05 01:16:05;;;;;;;9.13;2.53;;;14.00;99.90;;;12.99;100.00;101484.94;4972856;28;20038;-75
2022/07/05 01:18:32;;;;;;;5.13;2.40;;;13.90;99.90;;;12.96;100.00;101487.72;4971666;28;20060;-75
2022/07/05 01:20:59;;;;;;;7.88;2.67;;;13.90;99.90;;;12.93;100.00;101486.94;4971208;28;20031;-74
2022/07/05 01:23:30;;;;;;;6.43;2.30;;;13.90;99.90;;;12.91;100.00;101487.94;4981142;28;20462;-75
2022/07/05 01:25:58;;;;;;;14.65;3.17;;;13.90;99.90;;;12.89;100.00;101495.94;4982029;28;20033;-75
2022/07/05 01:28:25;;;;;;;13.98;2.75;;;13.90;99.90;;;12.87;100.00;101488.97;4974916;28;20034;-75
2022/07/05 01:30:51;;;;;;;16.42;3.10;;;13.80;99.90;;;12.84;100.00;101497.91;4974224;28;20026;-75
2022/07/05 01:33:18;;;;;;;9.15;2.70;;;13.80;99.90;;;12.83;100.00;101493.56;4979273;28;20106;-74
2022/07/05 01:35:44;;;;;;;7.95;3.08;;;13.80;99.90;;;12.84;100.00;101497.06;4995189;28;20079;-75
2022/07/05 01:38:12;;;;;;;12.80;3.17;;;13.80;99.90;;;12.87;100.00;101499.56;4983697;28;20023;-74
2022/07/05 01:40:38;;;;;;;6.20;3.30;;;13.80;99.90;;;12.89;100.00;101495.94;4971772;28;20026;-75
2022/07/05 01:43:06;;;;;;;9.65;3.22;;;13.90;99.90;;;12.92;100.00;101495.78;4974461;28;20047;-75
2022/07/05 01:45:41;;;;;;;15.90;3.20;;;13.90;99.90;;;12.95;100.00;101488.66;4979573;28;20056;-75
2022/07/05 01:48:14;;;;;;;8.90;2.97;;;13.90;99.90;;;12.96;100.00;101493.00;4975561;28;20030;-75
2022/07/05 01:51:00;;;;;;;8.50;2.80;;;13.90;99.90;;;12.97;100.00;101492.09;4983854;28;20045;-75
2022/07/05 01:53:29;;;;;;;4.90;2.70;;;13.90;99.90;;;12.95;100.00;101492.16;4969756;28;20975;-75
2022/07/05 01:56:01;;;;;;;13.38;3.28;;;13.90;99.90;;;12.96;100.00;101491.25;5003600;28;20029;-75
2022/07/05 01:58:28;;;;;;;7.57;2.60;;;13.90;99.90;;;12.96;100.00;101498.28;4977306;28;20029;-75
2022/07/05 02:00:55;;;;;;;8.05;2.55;;;13.90;99.90;;;12.96;100.00;101487.72;4989536;28;20033;-75
2022/07/05 02:03:22;;;;;;;4.97;2.50;;;13.90;99.90;;;12.96;100.00;101491.25;4997128;28;20041;-75
2022/07/05 02:05:49;;;;;;;14.63;3.10;;;13.90;99.90;;;12.97;100.00;101492.09;4988694;28;20045;-75
2022/07/05 02:08:17;;;;;;;7.88;2.90;;;13.90;99.90;;;12.95;100.00;101496.59;4986975;28;20019;-75
2022/07/05 02:10:44;;;;;;;9.32;2.47;;;13.90;99.90;;;12.97;100.00;101494.75;4996728;28;20026;-75
2022/07/05 02:13:11;;;;;;;10.20;2.40;;;13.90;99.90;;;12.97;100.00;101505.31;5003440;28;20053;-75
2022/07/05 02:15:41;;;;;;;10.93;2.60;;;13.90;99.90;;;12.98;100.00;101501.72;4998588;28;20113;-75
2022/07/05 02:18:09;;;;;;;10.85;2.20;;;13.90;99.90;;;12.96;100.00;101503.56;4968991;28;20045;-75
2022/07/05 02:20:37;;;;;;;13.27;2.75;;;13.90;99.90;;;12.93;100.00;101502.78;4987437;28;20042;-75
2022/07/05 02:23:03;;;;;;;25.92;2.65;;;13.90;99.90;;;12.91;100.00;101499.38;4980252;28;20402;-75
2022/07/05 02:25:29;;;;;;;17.55;2.22;;;13.80;99.90;;;12.88;100.00;101501.28;4987303;28;20030;-75
2022/07/05 02:27:56;;;;;;;16.13;3.40;;;13.80;99.90;;;12.82;100.00;101510.34;4971425;28;20045;-75
2022/07/05 02:30:22;;;;;;;15.43;2.72;;;13.70;99.90;;;12.79;100.00;101507.84;4976041;28;20046;-75
2022/07/05 02:32:48;;;;;;;14.98;2.40;;;13.70;99.90;;;12.76;100.00;101507.94;4961521;28;20108;-75
2022/07/05 02:35:14;;;;;;;18.88;2.38;;;13.70;99.90;;;12.72;100.00;101520.47;4971708;28;20030;-75
2022/07/05 02:37:40;;;;;;;15.07;2.53;;;13.60;99.90;;;12.68;100.00;101515.38;4962969;28;20065;-74
2022/07/05 02:40:12;;;;;;;13.10;2.45;;;13.60;99.90;;;12.63;100.00;101514.69;4989705;28;20113;-75
2022/07/05 02:42:39;;;;;;;20.20;3.33;;;13.60;99.90;;;12.59;100.00;101510.47;4986389;28;20085;-75
2022/07/05 02:45:06;;;;;;;14.18;2.80;;;13.50;99.90;;;12.54;100.00;101518.59;4969394;28;20030;-75
2022/07/05 02:47:36;;;;;;;16.50;3.08;;;13.50;99.90;;;12.48;100.00;101511.78;4987604;28;20029;-75
2022/07/05 02:50:10;;;;;;;15.23;2.90;;;13.40;99.90;;;12.42;100.00;101508.53;4989709;28;20497;-75
2022/07/05 02:52:36;;;;;;;21.00;3.05;;;13.40;99.90;;;12.38;100.00;101510.44;4987716;28;20046;-75
2022/07/05 02:55:06;;;;;;;22.58;3.05;;;13.40;99.90;;;12.35;100.00;101504.44;5005308;28;20490;-75
2022/07/05 02:57:32;;;;;;;30.27;3.67;;;13.30;99.90;;;12.33;100.00;101504.47;4986685;28;20042;-75
2022/07/05 02:59:58;;;;;;;23.00;3.30;;;13.30;99.90;;;12.31;100.00;101501.06;4980790;28;20501;-75
2022/07/05 03:02:24;;;;;;;24.27;3.55;;;13.20;99.90;;;12.29;100.00;101516.97;4983760;28;20033;-75
2022/07/05 03:04:50;;;;;;;23.27;3.65;;;13.30;99.90;;;12.29;100.00;101508.19;4982756;28;20027;-75
2022/07/05 03:07:16;;;;;;;20.60;3.33;;;13.20;99.90;;;12.29;100.00;101511.69;4976571;28;20033;-75
2022/07/05 03:09:42;;;;;;;29.13;3.53;;;13.20;99.90;;;12.30;100.00;101505.47;4983580;28;20053;-75
2022/07/05 03:12:08;;;;;;;15.52;2.90;;;13.30;99.90;;;12.35;100.00;101502.63;4974971;28;20033;-75
2022/07/05 03:14:34;;;;;;;15.57;3.00;;;13.30;99.90;;;12.40;100.00;101510.41;4968402;28;22681;-75
2022/07/05 03:17:00;;;;;;;18.42;3.33;;;13.30;99.90;;;12.44;100.00;101496.13;4985337;28;20438;-75
2022/07/05 03:19:26;;;;;;;15.27;2.60;;;13.30;99.90;;;12.50;100.00;101501.13;4977039;28;20042;-74
2022/07/05 03:21:52;;;;;;;14.15;3.13;;;13.40;99.90;;;12.56;100.00;101510.59;5016930;22;20060;-75
2022/07/05 03:24:17;;;;;;;22.55;3.55;;;13.40;99.90;;;12.58;100.00;101504.31;5004626;28;20510;-75
2022/07/05 03:26:43;;;;;;;;;;;13.40;99.90;;;12.58;100.00;101503.47;4993095;28;20458;-75
2022/07/05 03:29:09;;;;;;;14.45;3.33;;;13.40;99.90;;;12.57;100.00;101507.03;5005428;28;19928;-75
2022/07/05 03:31:35;;;;;;;31.23;3.30;;;13.40;99.90;;;12.58;100.00;101514.03;4993703;28;20030;-74
2022/07/05 03:34:01;;;;;;;28.60;3.17;;;13.50;99.90;;;12.59;100.00;101511.34;4965647;28;20097;-75
2022/07/05 03:36:27;;;;;;;;;;;13.50;99.90;;;12.55;100.00;101503.59;4984659;28;20076;-74
2022/07/05 03:38:53;;;;;;;25.50;3.47;;;13.40;99.90;;;12.57;100.00;101512.31;4983814;28;19955;-76
2022/07/05 03:41:19;;;;;;;32.03;3.50;;;13.50;99.90;;;12.61;100.00;101514.78;4985315;28;20089;-75
2022/07/05 03:43:44;;;;;;;;;;;13.50;99.90;;;12.85;100.00;101515.50;4984135;28;20034;-76
2022/07/05 03:46:10;;;;;;;34.45;3.97;;;14.80;99.90;;;14.05;100.00;101527.69;4967142;28;19922;-75
2022/07/05 03:48:36;;;;;;;32.80;3.50;;;16.30;99.90;;;15.63;98.77;101522.19;4986503;28;20037;-75
2022/07/05 03:51:02;;;;;;;22.98;2.80;;;17.90;99.90;;;17.34;87.63;101531.75;4982764;28;20398;-75
2022/07/05 03:53:28;;;;;;;30.67;2.90;;;19.30;99.90;;;18.89;77.66;101544.78;4984080;28;20045;-75
2022/07/05 03:55:53;;;;;;;24.92;3.00;;;20.60;99.90;;;20.26;70.18;101549.25;4969088;28;20096;-75
2022/07/05 03:58:19;;;;;;;;;;;20.70;99.90;;;21.56;66.56;101567.00;4981143;28;20030;-75
2022/07/05 04:00:45;;;;;;;24.75;3.08;;;22.70;99.90;;;22.47;61.97;101567.66;4983825;28;19906;-75
2022/07/05 04:03:11;;;;;;;;;;;22.70;99.90;;;23.38;59.85;101568.84;4984810;28;20046;-75
2022/07/05 04:05:37;;;;;;;30.35;3.42;;;24.40;99.90;;;24.21;57.05;101579.44;4978502;28;20297;-76
2022/07/05 04:08:03;;;;;;;20.00;2.38;;;25.10;99.90;;;24.94;54.78;101587.94;4990841;28;20034;-76
2022/07/05 04:10:29;;;;;;;26.60;2.90;;;25.80;99.90;;;25.75;52.83;101580.19;4981879;28;20422;-76
2022/07/05 04:12:55;;;;;;;21.95;2.80;;;26.50;99.90;;;26.63;51.06;101594.97;4987773;28;20045;-75
2022/07/05 04:15:20;;;;;;;19.73;2.10;;;27.20;98.70;;;27.39;48.95;101594.38;4979896;28;20027;-74
2022/07/05 04:17:55;;;;;;;26.23;2.75;;;27.80;96.80;;;28.02;47.43;101601.25;4981478;28;20035;-75
2022/07/05 04:20:24;;;;;;;15.43;2.05;;;28.20;95.70;;;28.17;46.19;101598.75;4979867;28;20033;-76
2022/07/05 04:22:50;;;;;;;14.25;1.70;;;27.80;96.20;;;27.52;47.53;101592.06;4965266;28;20500;-75
2022/07/05 04:25:17;;;;;;;14.02;2.00;;;28.20;95.40;;;28.42;46.09;101613.16;4982002;28;20041;-76
2022/07/05 04:27:49;;;;;;;16.33;1.98;;;28.70;95.10;;;29.11;44.61;101619.13;4982826;28;21565;-76
2022/07/05 04:30:17;;;;;;;10.32;1.83;;;29.30;94.20;;;30.01;42.78;101621.56;5000304;28;20486;-75
2022/07/05 04:32:43;;;;;;;10.60;1.50;;;29.90;93.60;;;30.82;41.41;101627.50;4982295;28;20049;-75
2022/07/05 04:35:10;;;;;;;14.90;2.10;;;30.50;92.50;;;31.48;39.87;101635.06;4984112;28;20038;-76
2022/07/05 04:37:36;;;;;;;14.48;1.73;;;31.00;91.60;;;32.09;38.69;101637.53;4983916;28;20120;-75
2022/07/05 04:40:04;;;;;;;12.05;1.90;;;31.50;91.20;;;32.69;37.91;101646.38;4999827;28;20042;-76
2022/07/05 04:42:31;;;;;;;11.85;1.85;;;31.80;90.30;;;32.98;37.13;101655.44;4973344;28;20045;-75
2022/07/05 04:44:57;;;;;;;14.43;1.75;;;32.10;89.90;;;33.42;36.54;101651.59;4998201;28;20022;-75
2022/07/05 04:47:23;;;;;;;9.20;1.85;;;32.40;89.10;;;33.78;36.13;101666.94;4983547;28;20479;-75
2022/07/05 04:49:49;;;;;;;12.13;1.70;;;32.70;87.30;;;34.30;35.32;101668.22;4987760;28;20077;-76
2022/07/05 04:52:14;;;;;;;10.02;1.52;;;33.10;88.10;;;34.63;34.69;101675.69;4994033;28;20495;-75
2022/07/05 04:54:40;;;;;;;8.70;1.70;;;33.40;85.90;;;35.16;33.48;101683.91;4981804;28;20027;-75
2022/07/05 04:57:06;;;;;;;9.05;1.70;;;33.70;84.50;;;35.57;32.51;101693.75;4982290;28;20022;-75
2022/07/05 04:59:32;;;;;;;11.35;1.48;;;34.00;84.30;;;35.96;32.14;101691.97;4983792;28;20037;-75
2022/07/05 05:01:58;;;;;;;12.40;1.65;;;34.30;83.00;;;36.40;31.64;101700.47;4975693;28;20668;-75
2022/07/05 05:04:26;;;;;;;9.63;1.63;;;34.60;81.90;;;36.77;30.92;101701.50;4981831;28;20030;-75
2022/07/05 05:06:52;;;;;;;11.93;1.50;;;34.90;81.20;;;37.29;30.62;101706.78;4983745;28;20110;-75
2022/07/05 05:09:17;;;;;;;7.10;1.40;;;35.20;79.10;;;37.52;29.57;101720.72;4975821;28;20026;-75
2022/07/05 05:11:43;;;;;;;13.05;1.67;;;35.30;79.00;;;37.76;29.36;101716.25;4978807;28;20044;-75
2022/07/05 05:14:09;;;;;;;7.95;1.45;;;35.50;77.30;;;37.94;28.65;101740.13;4980310;28;21030;-75
2022/07/05 05:16:35;;;;;;;10.32;1.67;;;35.60;76.40;;;38.09;28.96;101742.53;4983028;28;20085;-75
2022/07/05 05:19:01;;;;;;;6.47;1.58;;;35.80;77.00;;;38.46;28.11;101742.44;4984138;28;20028;-76
2022/07/05 05:21:27;;;;;;;10.93;1.60;;;36.00;76.30;;;38.80;28.16;101750.25;4981890;28;20037;-76
2022/07/05 05:23:52;;;;;;;10.82;1.90;;;36.20;76.50;;;39.17;27.65;101749.03;4984007;28;20050;-75
2022/07/05 05:26:18;;;;;;;5.60;1.45;;;36.50;75.80;;;39.64;27.02;101756.50;4965493;28;20030;-75
2022/07/05 05:28:44;;;;;;;7.55;1.90;;;36.80;74.10;;;39.85;26.95;101754.19;4982654;28;20087;-76
2022/07/05 05:31:10;;;;;;;10.32;1.45;;;37.00;74.20;;;40.12;26.33;101763.59;4995615;28;20041;-75
2022/07/05 05:33:36;;;;;;;6.45;1.35;;;37.20;72.80;;;40.22;26.27;101762.13;4983903;28;20039;-76
2022/07/05 05:36:03;;;;;;;15.13;2.03;;;37.40;71.80;;;40.48;26.20;101771.78;4976403;28;20057;-75
2022/07/05 05:38:28;;;;;;;18.92;2.15;;;37.60;70.40;;;40.61;25.29;101774.25;4981410;28;20050;-76
2022/07/05 05:40:54;;;;;;;9.10;1.60;;;37.70;70.90;;;40.71;25.33;101779.13;4984338;28;20022;-75
2022/07/05 05:43:20;;;;;;;18.38;1.63;;;37.70;68.80;;;40.64;25.58;101782.03;4988104;28;20023;-76
2022/07/05 05:45:46;;;;;;;9.02;1.58;;;37.70;68.80;;;40.65;25.39;101783.72;4993182;28;20406;-75
2022/07/05 05:48:22;;;;;;;11.85;1.80;;;37.60;70.10;;;40.43;25.58;101783.56;4985285;28;20502;-76
2022/07/05 05:50:48;;;;;;;;;;;37.60;70.50;;;41.16;25.08;101778.31;4981689;28;20066;-75
2022/07/05 05:53:14;;;;;;;15.20;1.98;;;38.00;69.10;;;41.24;25.42;101783.41;4965100;28;20301;-75
2022/07/05 05:55:43;;;;;;;10.93;1.95;;;38.00;66.50;;;40.62;25.56;101786.13;4990039;28;20029;-76
2022/07/05 05:58:25;;;;;;;8.27;1.63;;;38.10;67.90;;;40.80;25.36;101783.16;4982973;28;22679;-75
2022/07/05 06:00:52;;;;;;;7.80;1.63;;;38.10;66.50;;;40.60;25.25;101778.91;4981840;28;20041;-77
2022/07/05 06:03:21;;;;;;;9.80;1.90;;;38.30;68.40;;;40.86;25.21;101778.59;4997712;28;20449;-75
2022/07/05 06:05:47;;;;;;;20.63;2.10;;;38.40;67.80;;;40.62;25.14;101780.59;4979025;28;20041;-76
2022/07/05 06:08:13;;;;;;;8.63;2.00;;;38.50;67.10;;;40.55;24.92;101778.84;4981782;28;20069;-75
2022/07/05 06:10:39;;;;;;;7.28;2.00;;;38.60;66.00;;;40.79;25.15;101781.50;4984378;28;20032;-75
2022/07/05 06:13:08;;;;;;;10.57;1.65;;;38.70;66.10;;;40.91;25.22;101785.06;4980838;28;20038;-76
2022/07/05 06:15:36;;;;;;;10.95;1.77;;;38.90;65.80;;;41.24;24.74;101780.66;4983725;28;20030;-75
2022/07/05 06:18:03;;;;;;;14.10;2.13;;;39.00;64.50;;;41.00;24.90;101786.31;4980368;28;20058;-75
2022/07/05 06:20:32;;;;;;;10.60;1.90;;;39.10;64.70;;;41.06;24.63;101783.63;4978688;28;20041;-76
2022/07/05 06:22:59;;;;;;;10.15;2.08;;;39.20;64.60;;;41.17;24.58;101780.00;4981971;28;20038;-75
2022/07/05 06:25:26;;;;;;;11.10;1.75;;;39.10;64.40;;;40.87;24.71;101785.81;4965254;28;20026;-75
2022/07/05 06:27:58;;;;;;;15.27;1.83;;;39.20;64.10;;;40.95;24.85;101780.69;4979841;28;20100;-75
2022/07/05 06:30:28;;;;;;;9.23;1.63;;;39.20;61.60;;;40.56;25.27;101783.28;4987195;28;20050;-75
2022/07/05 06:32:54;;;;;;;13.05;1.65;;;39.20;62.60;;;40.64;25.04;101776.50;4981384;28;20022;-76
2022/07/05 06:35:21;;;;;;;8.98;1.67;;;39.20;63.20;;;40.65;24.88;101780.09;4980972;28;20041;-75
2022/07/05 06:37:55;;;;;;;10.65;1.80;;;39.20;62.80;;;40.73;24.55;101777.81;4983494;28;20037;-75
2022/07/05 06:40:29;;;;;;;12.88;1.80;;;39.10;61.70;;;39.97;24.68;101774.31;4986604;28;20084;-76
2022/07/05 06:42:59;;;;;;;13.95;2.20;;;38.90;61.80;;;39.82;25.54;101769.28;4985185;28;20199;-76
2022/07/05 06:45:25;;;;;;;15.35;1.60;;;38.70;62.90;;;39.89;25.38;101770.00;4969009;28;20042;-76
2022/07/05 06:47:58;;;;;;;8.05;1.33;;;38.80;62.00;;;39.85;24.06;101785.38;4981966;28;20046;-76
2022/07/05 06:50:26;;;;;;;18.98;1.83;;;38.80;61.90;;;39.58;24.91;101774.00;4983624;28;20097;-76
2022/07/05 06:52:53;;;;;;;12.65;1.80;;;38.60;60.80;;;39.37;25.27;101772.63;4986197;28;20042;-76
2022/07/05 06:55:19;;;;;;;12.98;1.80;;;38.60;61.10;;;39.28;25.22;101768.56;4986244;28;20577;-75
2022/07/05 06:57:45;;;;;;;6.30;1.30;;;38.60;60.70;;;39.12;25.40;101770.94;4984549;28;20030;-76
2022/07/05 07:00:12;;;;;;;13.45;1.50;;;38.50;62.40;;;39.26;25.55;101771.53;4997204;28;20548;-75
2022/07/05 07:02:38;;;;;;;12.50;1.75;;;38.50;60.30;;;39.21;25.06;101778.88;4986142;28;20034;-75
2022/07/05 07:05:05;;;;;;;8.98;1.50;;;38.40;59.70;;;38.92;25.11;101773.13;4999517;28;20052;-75
2022/07/05 07:10:19;;;;;;;4.65;1.42;;;38.30;58.80;;;38.68;24.64;101772.22;4996460;28;20060;-76
2022/07/05 07:12:45;;;;;;;7.28;1.35;;;38.10;59.10;;;38.31;24.84;101775.88;4980442;28;20050;-75
2022/07/05 07:15:11;;;;;;;9.38;1.15;;;38.00;58.70;;;38.06;24.76;101770.50;4987147;28;20034;-75
2022/07/05 07:17:36;;;;;;;5.93;1.00;;;37.70;58.30;;;37.50;24.31;101771.47;4987096;28;20306;-75
2022/07/05 07:20:04;;;;;;;15.20;1.60;;;37.40;59.50;;;37.54;25.53;101767.19;4987009;28;20023;-76
2022/07/05 07:22:30;;;;;;;7.47;1.35;;;37.30;58.90;;;37.41;24.89;101770.03;4981122;28;20050;-76
2022/07/05 07:24:56;;;;;;;7.82;1.20;;;37.10;58.70;;;37.18;25.76;101773.44;4983894;28;20040;-76
2022/07/05 07:27:22;;;;;;;7.22;1.45;;;36.90;59.00;;;36.95;25.50;101778.41;4985365;28;20038;-75
2022/07/05 07:29:48;;;;;;;9.27;1.33;;;36.50;59.00;;;36.31;25.85;101771.16;4985633;28;20034;-76
2022/07/05 07:32:14;;;;;;;6.45;1.30;;;35.90;59.20;;;35.53;26.89;101766.44;4974688;28;20029;-75
2022/07/05 07:34:40;;;;;;;5.32;1.25;;;35.10;59.90;;;34.11;28.35;101749.94;4982674;28;20600;-75
2022/07/05 07:37:08;;;;;;;4.72;1.17;;;34.80;61.70;;;34.41;27.98;101746.06;4986208;28;20046;-74
2022/07/05 07:39:35;;;;;;;6.65;1.25;;;34.20;62.30;;;33.52;29.41;101733.97;4982471;28;20049;-76
2022/07/05 07:42:00;;;;;;;8.43;1.27;;;33.90;64.00;;;33.56;29.50;101734.41;4967546;28;20554;-75
2022/07/05 07:44:26;;;;;;;5.93;1.40;;;33.90;64.70;;;33.92;29.33;101728.78;4980596;28;20041;-75
2022/07/05 07:46:53;;;;;;;5.18;1.00;;;33.00;62.80;;;31.94;31.19;101718.41;4983368;28;23363;-75
2022/07/05 07:49:19;;;;;;;9.90;1.38;;;32.10;64.50;;;30.64;33.01;101712.06;4998154;28;20451;-75
2022/07/05 07:51:45;;;;;;;9.07;1.48;;;31.70;66.90;;;31.37;32.32;101715.25;4983465;28;20030;-75
2022/07/05 07:54:11;;;;;;;6.57;1.15;;;31.80;67.20;;;32.17;31.51;101710.16;4986889;28;20453;-75
2022/07/05 07:56:37;;;;;;;4.35;1.00;;;31.10;66.80;;;29.73;33.58;101693.66;4984428;28;20039;-75
2022/07/05 07:59:02;;;;;;;4.13;1.10;;;30.40;70.00;;;29.53;34.92;101691.28;4984384;28;21440;-75
2022/07/05 08:01:28;;;;;;;5.40;1.30;;;30.20;71.20;;;30.12;34.69;101684.66;4984523;28;20038;-75
2022/07/05 08:03:54;;;;;;;3.25;1.00;;;30.20;71.80;;;30.37;33.85;101682.72;4983719;28;20156;-75
2022/07/05 08:06:20;;;;;;;16.85;1.27;;;30.60;70.00;;;31.26;32.84;101699.38;4985770;28;20448;-74
2022/07/05 08:08:47;;;;;;;4.03;1.02;;;30.80;69.20;;;31.25;32.63;101690.38;4981733;28;20068;-75
2022/07/05 08:11:15;;;;;;;4.82;1.15;;;30.90;69.90;;;31.28;32.61;101698.16;4980786;28;20042;-75
2022/07/05 08:13:42;;;;;;;10.93;1.33;;;31.00;70.00;;;31.36;32.43;101688.22;4978762;28;20481;-75
2022/07/05 08:16:10;;;;;;;5.93;1.00;;;31.20;69.20;;;31.74;32.47;101693.63;4981285;28;20489;-75
2022/07/05 08:21:34;;;;;;;6.63;1.35;;;31.50;67.50;;;31.83;31.63;101697.94;4975238;28;20046;-75
2022/07/05 08:24:12;;;;;;;3.90;1.00;;;31.50;67.30;;;31.52;31.03;101693.53;4982319;28;20038;-74
2022/07/05 08:26:39;;;;;;;4.35;1.23;;;30.90;67.60;;;30.51;33.40;101676.47;4982977;28;20386;-74
2022/07/05 08:29:09;;;;;;;5.65;1.10;;;29.90;69.80;;;28.66;35.71;101666.56;4982622;28;20825;-76
2022/07/05 08:31:45;;;;;;;4.32;0.82;;;29.00;70.00;;;28.21;36.24;101656.97;4985096;28;20442;-74
2022/07/05 08:34:11;;;;;;;6.38;1.10;;;28.50;71.20;;;28.09;36.64;101655.56;4979812;28;20065;-75
2022/07/05 08:36:38;;;;;;;6.05;0.93;;;28.40;74.10;;;28.34;37.37;101654.63;4982182;28;20101;-76
2022/07/05 08:39:05;;;;;;;8.20;1.17;;;28.50;75.70;;;28.37;37.95;101653.44;4978343;28;20022;-75
2022/07/05 08:41:35;;;;;;;3.75;0.80;;;28.20;72.00;;;27.30;37.51;101655.66;4983026;28;20033;-75
2022/07/05 08:44:03;;;;;;;6.55;1.20;;;27.80;75.60;;;26.97;38.97;101657.22;4999596;28;20034;-75
2022/07/05 08:46:32;;;;;;;7.15;0.98;;;27.60;75.50;;;26.99;39.04;101647.94;4984369;28;20018;-74
2022/07/05 08:49:06;;;;;;;4.28;1.05;;;27.50;75.30;;;27.13;38.74;101645.72;4981477;28;20129;-75
2022/07/05 08:51:42;;;;;;;7.75;1.25;;;27.60;73.50;;;27.14;38.21;101645.53;4983514;28;20022;-75
2022/07/05 08:54:12;;;;;;;5.47;1.05;;;27.50;76.00;;;26.97;39.49;101636.44;4993810;28;20030;-75
2022/07/05 08:56:41;;;;;;;3.30;0.80;;;27.10;74.10;;;26.23;39.07;101631.34;4969898;28;20494;-76
2022/07/05 08:59:07;;;;;;;8.07;0.80;;;26.80;74.50;;;25.74;40.33;101627.03;4982150;28;20113;-75
2022/07/05 09:01:34;;;;;;;4.80;1.00;;;26.40;76.60;;;25.49;41.27;101615.06;4980400;28;20093;-75
2022/07/05 09:04:10;;;;;;;5.18;1.13;;;26.30;78.30;;;25.70;41.95;101619.38;4959107;28;20453;-75
2022/07/05 09:06:39;;;;;;;2.63;0.60;;;26.10;76.40;;;25.61;40.97;101614.88;4971082;28;20482;-75
2022/07/05 09:09:11;;;;;;;3.33;1.00;;;26.10;78.90;;;25.71;41.86;101621.09;4957671;28;20026;-75
2022/07/05 09:11:40;;;;;;;4.07;1.02;;;26.10;76.20;;;25.58;40.22;101624.97;4980406;28;20042;-75
2022/07/05 09:14:28;;;;;;;7.90;1.00;;;26.20;79.00;;;25.86;40.97;101625.00;4982108;28;20509;-75
2022/07/05 09:16:57;;;;;;;6.55;0.80;;;26.20;78.50;;;25.96;40.94;101625.81;4986422;28;20415;-75
2022/07/05 09:19:23;;;;;;;4.03;0.98;;;26.30;77.30;;;25.93;40.42;101627.97;4979713;28;20023;-76
2022/07/05 09:22:02;;;;;;;7.00;0.90;;;26.20;76.30;;;25.47;39.83;101625.16;4984314;28;20044;-75
2022/07/05 09:24:32;;;;;;;2.60;0.80;;;26.00;80.80;;;25.34;42.00;101606.63;4981018;28;20064;-76
2022/07/05 09:27:11;;;;;;;3.72;0.75;;;25.70;79.00;;;25.11;42.16;101613.31;4982894;28;20055;-74
2022/07/05 09:30:01;;;;;;;4.55;0.75;;;25.70;80.10;;;25.17;41.92;101618.13;4983784;28;20043;-75
2022/07/05 09:32:33;;;;;;;2.95;0.77;;;25.70;78.80;;;25.34;41.14;101619.25;4968360;28;20049;-75
2022/07/05 09:35:19;;;;;;;7.10;0.80;;;25.80;79.60;;;25.67;40.34;101620.53;4981094;28;20037;-74
2022/07/05 09:37:48;;;;;;;3.57;0.90;;;26.00;74.20;;;25.60;38.82;101626.69;4981347;28;20410;-75
2022/07/05 09:40:23;;;;;;;1.52;0.60;;;26.10;75.50;;;25.78;39.49;101632.97;4983566;28;20077;-75
2022/07/05 09:42:52;;;;;;;6.22;0.95;;;26.30;77.00;;;26.03;38.65;101620.69;4978533;28;20049;-75
2022/07/05 09:45:30;;;;;;;7.40;1.00;;;26.50;76.60;;;26.36;38.80;101624.56;4983388;28;20029;-75
2022/07/05 09:48:06;;;;;;;11.55;0.90;;;26.80;76.90;;;26.53;39.68;101627.44;4979879;28;20032;-75
2022/07/05 09:50:41;;;;;;;5.95;1.05;;;26.60;72.90;;;25.82;38.37;101634.38;4980719;28;20038;-75
2022/07/05 09:53:16;;;;;;;5.13;0.80;;;26.30;74.50;;;25.61;39.65;101637.31;4981022;28;20454;-74
2022/07/05 09:56:03;;;;;;;2.30;0.80;;;26.20;73.70;;;25.84;39.33;101626.16;4984451;28;20053;-75
2022/07/05 09:58:33;;;;;;;3.25;0.75;;;26.30;77.00;;;26.06;40.26;101620.38;4979948;28;20469;-76
2022/07/05 10:01:22;;;;;;;5.22;0.80;;;26.40;71.90;;;26.17;36.84;101638.19;4985693;28;20022;-74
2022/07/05 10:04:02;;;;;;;8.98;0.98;;;26.60;74.00;;;26.28;37.78;101639.84;4981975;28;20415;-74
2022/07/05 10:06:32;;;;;;;5.28;0.82;;;26.70;74.20;;;26.47;37.17;101630.75;4982126;28;20046;-75
2022/07/05 10:08:59;;;;;;;10.50;0.90;;;26.90;76.20;;;26.58;37.98;101627.84;4980195;28;20050;-75
2022/07/05 10:11:26;;;;;;;6.43;1.13;;;26.80;74.40;;;26.27;38.27;101632.75;4985183;28;20120;-75
2022/07/05 10:13:54;;;;;;;5.22;0.80;;;26.60;73.20;;;25.88;37.89;101644.63;4997563;28;20025;-74
2022/07/05 10:16:22;;;;;;;4.10;0.70;;;26.30;75.00;;;25.56;40.10;101623.41;4987306;28;20434;-75
2022/07/05 10:18:54;;;;;;;4.95;1.02;;;26.00;75.80;;;25.28;40.05;101625.22;4983636;28;20081;-75